Terminal Aerodrome Forecast
Issued by NWS Sioux Falls, SD

Home | Current Version | Previous Version | Text Only | Print | Product List | Glossary On
Versions: 1 2 3 4 5 6 7 8 9 10 11 12
000
FTUS43 KFSD 240526
TAFFSD
TAF
KFSD 240526Z 2406/2506 16012KT P6SM SCT060 BKN120
      TEMPO 2406/2410 -SHRA BKN060
     FM241000 16008KT P6SM SCT020 BKN050
      TEMPO 2410/2414 5SM BR BKN020
     FM241600 17010KT P6SM BKN030
     FM242200 17010KT P6SM SCT040
     FM250200 16005KT P6SM SKC=

USA.gov is the U.S. government's official web portal to all federal, state and local government web resources and services.